地図

経路データ

SID SEASON NUMBER BASIN SUBBASIN NAME ISO_TIME NATURE LAT LON WMO_WIND WMO_PRES WMO_AGENCY TRACK_TYPE DIST2LAND LANDFALL IFLAG USA_AGENCY USA_ATCF_ID USA_LAT USA_LON USA_RECORD USA_STATUS USA_WIND USA_PRES USA_SSHS USA_R34_NE USA_R34_SE USA_R34_SW USA_R34_NW USA_R50_NE USA_R50_SE USA_R50_SW USA_R50_NW USA_R64_NE USA_R64_SE USA_R64_SW USA_R64_NW USA_POCI USA_ROCI USA_RMW USA_EYE TOKYO_LAT TOKYO_LON TOKYO_GRADE TOKYO_WIND TOKYO_PRES TOKYO_R50_DIR TOKYO_R50_LONG TOKYO_R50_SHORT TOKYO_R30_DIR TOKYO_R30_LONG TOKYO_R30_SHORT TOKYO_LAND CMA_LAT CMA_LON CMA_CAT CMA_WIND CMA_PRES HKO_LAT HKO_LON HKO_CAT HKO_WIND HKO_PRES NEWDELHI_LAT NEWDELHI_LON NEWDELHI_GRADE NEWDELHI_WIND NEWDELHI_PRES NEWDELHI_CI NEWDELHI_DP NEWDELHI_POCI REUNION_LAT REUNION_LON REUNION_TYPE REUNION_WIND REUNION_PRES REUNION_TNUM REUNION_CI REUNION_RMW REUNION_R34_NE REUNION_R34_SE REUNION_R34_SW REUNION_R34_NW REUNION_R50_NE REUNION_R50_SE REUNION_R50_SW REUNION_R50_NW REUNION_R64_NE REUNION_R64_SE REUNION_R64_SW REUNION_R64_NW BOM_LAT BOM_LON BOM_TYPE BOM_WIND BOM_PRES BOM_TNUM BOM_CI BOM_RMW BOM_R34_NE BOM_R34_SE BOM_R34_SW BOM_R34_NW BOM_R50_NE BOM_R50_SE BOM_R50_SW BOM_R50_NW BOM_R64_NE BOM_R64_SE BOM_R64_SW BOM_R64_NW BOM_ROCI BOM_POCI BOM_EYE BOM_POS_METHOD BOM_PRES_METHOD NADI_LAT NADI_LON NADI_CAT NADI_WIND NADI_PRES WELLINGTON_LAT WELLINGTON_LON WELLINGTON_WIND WELLINGTON_PRES DS824_LAT DS824_LON DS824_STAGE DS824_WIND DS824_PRES TD9636_LAT TD9636_LON TD9636_STAGE TD9636_WIND TD9636_PRES TD9635_LAT TD9635_LON TD9635_WIND TD9635_PRES TD9635_ROCI NEUMANN_LAT NEUMANN_LON NEUMANN_CLASS NEUMANN_WIND NEUMANN_PRES MLC_LAT MLC_LON MLC_CLASS MLC_WIND MLC_PRES USA_GUST BOM_GUST BOM_GUST_PER REUNION_GUST REUNION_GUST_PER USA_SEAHGT USA_SEARAD_NE USA_SEARAD_SE USA_SEARAD_SW USA_SEARAD_NW STORM_SPEED STORM_DIR
1995334N09129 1995 92 WP MM NOT_NAMED 1995-11-30 00:00:00 NR 8.90000 129.100 main 304 286 O_____________ jtwc_wp WP321995 8.90000 129.100 15 -1 6 314
1995334N09129 1995 92 WP MM NOT_NAMED 1995-11-30 03:00:00 NR 9.10003 128.890 main 287 267 P_____________ WP321995 9.10003 128.890 15 -1 6 315
1995334N09129 1995 92 WP MM NOT_NAMED 1995-11-30 06:00:00 NR 9.30000 128.700 main 269 261 O_____________ jtwc_wp WP321995 9.30000 128.700 15 -1 5 319
1995334N09129 1995 92 WP MM NOT_NAMED 1995-11-30 09:00:00 NR 9.49998 128.542 main 254 245 P_____________ WP321995 9.49998 128.542 15 -1 5 324
1995334N09129 1995 92 WP MM NOT_NAMED 1995-11-30 12:00:00 NR 9.70000 128.400 main 247 240 O_____________ jtwc_wp WP321995 9.70000 128.400 15 -1 5 324
1995334N09129 1995 92 WP MM NOT_NAMED 1995-11-30 15:00:00 NR 9.90750 128.243 main 233 226 P_____________ WP321995 9.90750 128.243 15 -1 5 324
1995334N09129 1995 92 WP MM NOT_NAMED 1995-11-30 18:00:00 NR 10.1000 128.100 main 231 227 O_____________ jtwc_wp WP321995 10.1000 128.100 15 -1 4 325
1995334N09129 1995 92 WP MM NOT_NAMED 1995-11-30 21:00:00 NR 10.2575 127.992 main 232 223 P_____________ WP321995 10.2575 127.992 15 -1 4 327
1995334N09129 1995 92 WP MM NOT_NAMED 1995-12-01 00:00:00 NR 10.4000 127.900 main 229 225 O_____________ jtwc_wp WP321995 10.4000 127.900 15 -1 4 327
1995334N09129 1995 92 WP MM NOT_NAMED 1995-12-01 03:00:00 NR 10.5500 127.800 main 225 210 P_____________ WP321995 10.5500 127.800 15 -1 4 327
1995334N09129 1995 92 WP MM NOT_NAMED 1995-12-01 06:00:00 NR 10.7000 127.700 main 210 197 O_____________ jtwc_wp WP321995 10.7000 127.700 15 -1 4 327
1995334N09129 1995 92 WP MM NOT_NAMED 1995-12-01 09:00:00 NR 10.8500 127.600 main 196 185 P_____________ WP321995 10.8500 127.600 17 -1 4 327
1995334N09129 1995 92 WP MM NOT_NAMED 1995-12-01 12:00:00 NR 11.0000 127.500 main 185 175 O_____________ jtwc_wp WP321995 11.0000 127.500 20 -1 4 327
1995334N09129 1995 92 WP MM NOT_NAMED 1995-12-01 15:00:00 NR 11.1500 127.400 main 175 165 P_____________ WP321995 11.1500 127.400 20 -1 4 327
1995334N09129 1995 92 WP MM NOT_NAMED 1995-12-01 18:00:00 NR 11.3000 127.300 main 167 159 O_____________ jtwc_wp WP321995 11.3000 127.300 20 -1 4 327
1995334N09129 1995 92 WP MM NOT_NAMED 1995-12-01 21:00:00 NR 11.4575 127.193 main 162 152 P_____________ WP321995 11.4575 127.193 22 -1 4 327
1995334N09129 1995 92 WP MM NOT_NAMED 1995-12-02 00:00:00 NR 11.6000 127.100 main 156 156 O_____________ jtwc_wp WP321995 11.6000 127.100 25 -1 3 330
1995334N09129 1995 92 WP MM NOT_NAMED 1995-12-02 03:00:00 NR 11.7000 127.050 main 162 152 P_____________ WP321995 11.7000 127.050 27 -1 2 333
1995334N09129 1995 92 WP MM NOT_NAMED 1995-12-02 06:00:00 NR 11.8000 127.000 main 158 152 O_____________ jtwc_wp WP321995 11.8000 127.000 30 -1 3 331
1995334N09129 1995 92 WP MM NOT_NAMED 1995-12-02 09:00:00 NR 11.9500 126.908 main 153 141 P_____________ WP321995 11.9500 126.908 30 -1 4 327
1995334N09129 1995 92 WP MM NOT_NAMED 1995-12-02 12:00:00 NR 12.1000 126.800 main 141 130 O_____________ jtwc_wp WP321995 12.1000 126.800 30 -1 3 322
1995334N09129 1995 92 WP MM NOT_NAMED 1995-12-02 15:00:00 NR 12.2075 126.700 main 130 120 P_____________ WP321995 12.2075 126.700 30 -1 3 316
1995334N09129 1995 92 WP MM NOT_NAMED 1995-12-02 18:00:00 NR 12.3000 126.600 main 120 109 O_____________ jtwc_wp WP321995 12.3000 126.600 30 -1 3 314
1995334N09129 1995 92 WP MM NOT_NAMED 1995-12-02 21:00:00 NR 12.3925 126.507 main 110 107 P_____________ WP321995 12.3925 126.507 30 -1 6 339
1995334N09129 1995 92 WP MM NOT_NAMED 1995-12-03 00:00:00 NR 12.9000 126.360 main 125 117 O__O__________ jtwc_wp WP321995 12.5000 126.400 30 -1 14.5000 126.200 TD 25 1004 9 338
1995334N09129 1995 92 WP MM NOT_NAMED 1995-12-03 03:00:00 NR 13.2542 126.153 main 140 132 P__P__________ WP321995 12.6500 126.258 30 -1 14.4626 125.943 TD 25 1004 7 324
1995334N09129 1995 92 WP MM NOT_NAMED 1995-12-03 06:00:00 NR 13.4857 125.929 main 135 129 O__O__________ jtwc_wp WP321995 12.8000 126.100 30 -1 14.4000 125.700 TD 25 1004 5 310
1995334N09129 1995 92 WP MM NOT_NAMED 1995-12-03 09:00:00 NR 13.6037 125.721 main 134 130 P__P__________ WP321995 12.9075 125.957 30 -1 14.3000 125.485 TD 25 1004 4 287
1995334N09129 1995 92 WP MM NOT_NAMED 1995-12-03 12:00:00 NR 13.6000 125.550 main 130 108 O__O__________ jtwc_wp WP321995 13.0000 125.800 30 -1 14.2000 125.300 TD 25 1004 3 274
1995334N09129 1995 92 WP MM NOT_NAMED 1995-12-03 15:00:00 NR 13.6287 125.379 main 108 87 P__P__________ WP321995 13.1075 125.615 30 -1 14.1500 125.143 TD 25 1004 3 278
1995334N09129 1995 92 WP MM NOT_NAMED 1995-12-03 18:00:00 NR 13.6500 125.200 main 86 65 O__O__________ jtwc_wp WP321995 13.2000 125.400 30 -1 14.1000 125.000 TD 25 1004 4 271
1995334N09129 1995 92 WP MM NOT_NAMED 1995-12-03 21:00:00 NR 13.6362 125.004 main 65 44 P__P__________ WP321995 13.2575 125.157 30 -1 14.0150 124.850 TD 25 1004 4 263
1995334N09129 1995 92 WP MM NOT_NAMED 1995-12-04 00:00:00 NR 13.6000 124.800 main 44 24 O__O__________ jtwc_wp WP321995 13.3000 124.900 30 -1 13.9000 124.700 TD 25 1004 4 260
1995334N09129 1995 92 WP MM NOT_NAMED 1995-12-04 03:00:00 NR 13.5687 124.615 main 24 15 P__P__________ WP321995 13.3874 124.680 27 -1 13.7500 124.550 TD 25 1004 4 254
1995334N09129 1995 92 WP MM NOT_NAMED 1995-12-04 06:00:00 NR 13.4857 124.400 main 15 10 O__O__________ jtwc_wp WP321995 13.4000 124.400 25 -1 13.6000 124.400 TD 25 1004 6 245
1995334N09129 1995 92 WP MM NOT_NAMED 1995-12-04 09:00:00 NR 13.3259 124.070 main 24 0 P__P__________ WP321995 13.2451 123.980 25 -1 13.4875 124.250 TD 25 1004 9 242
1995334N09129 1995 92 WP MM NOT_NAMED 1995-12-04 12:00:00 NR 13.0800 123.620 main 0 0 O__O__________ jtwc_wp WP321995 13.0000 123.500 25 -1 13.4000 124.100 TD 25 1004 12 241
1995334N09129 1995 92 WP MM NOT_NAMED 1995-12-04 15:00:00 NR 12.7650 123.043 main 39 39 P_____________ WP321995 12.7650 123.043 25 -1 TD 12 240
1995334N09129 1995 92 WP MM NOT_NAMED 1995-12-04 18:00:00 NR 12.5000 122.600 main 73 44 O_____________ jtwc_wp WP321995 12.5000 122.600 25 -1 10 237
1995334N09129 1995 92 WP MM NOT_NAMED 1995-12-04 21:00:00 NR 12.2149 122.185 main 44 11 P_____________ WP321995 12.2149 122.185 22 -1 10 233
1995334N09129 1995 92 WP MM NOT_NAMED 1995-12-05 00:00:00 NR 11.9000 121.800 main 11 10 O_____________ jtwc_wp WP321995 11.9000 121.800 20 -1 10 228
1995334N09129 1995 92 WP MM NOT_NAMED 1995-12-05 03:00:00 NR 11.5499 121.443 main 55 55 P_____________ WP321995 11.5499 121.443 17 -1 10 224
1995334N09129 1995 92 WP MM NOT_NAMED 1995-12-05 06:00:00 NR 11.2000 121.100 main 98 98 O_____________ jtwc_wp WP321995 11.2000 121.100 15 -1 10 226
1995334N09129 1995 92 WP MM NOT_NAMED 1995-12-05 09:00:00 NR 10.8876 120.752 main 120 77 P_____________ WP321995 10.8876 120.752 15 -1 9 229
1995334N09129 1995 92 WP MM NOT_NAMED 1995-12-05 12:00:00 NR 10.6000 120.400 main 77 O_____________ jtwc_wp WP321995 10.6000 120.400 15 -1 9 230

デジタル台風データ・検索

IBTrACS Databaseについて

本データベースは、米国NOAAが公開する1842年以降の世界の熱帯低気圧のベストトラックデータアーカイブInternational Best Track Archive for Climate Stewardship (IBTrACS)を、ウェブで閲覧しやすい形式に変換したものです。

最終更新日:2021-10-19